KALI/ALI METAR and TAF weather

Enter ICAO airport designator
Station Type Date Time Source
KALI METAR 2019/02/23 22:53 UTC NOAA

KALI 232253Z AUTO 35007KT 10SM CLR 23/03 A2994 RMK AO2 SLP135 T02330033


Station Type Date Time Source
KALI Decoded METAR 2019/02/23 22:53 UTC NOAA

ALICE INTERNATIONAL AIRPORT, TX, United States (KALI) 27-44N 098-01W 53M
Feb 23, 2019 - 05:53 PM EST / 2019.02.23 2253 UTC
Wind: from the N (350 degrees) at 8 MPH (7 KT):0
Visibility: 10 mile(s):0
Sky conditions: clear
Temperature: 73.9 F (23.3 C)
Dew Point: 37.9 F (3.3 C)
Relative Humidity: 27%
Pressure (altimeter): 29.94 in. Hg (1013 hPa)
ob: KALI 232253Z AUTO 35007KT 10SM CLR 23/03 A2994 RMK AO2 SLP135 T02330033
cycle: 23

Station Type Date Time Source
KALI TAF 2019/02/23 18:30 UTC NOAA

TAF KALI 231729Z 2318/2418 34015G22KT P6SM FEW030 BKN250
FM240000 35006KT P6SM SCT250
FM241500 04015G22KT P6SM SCT250


Example: see airport list